Thunder radar more information blitzortung!


Löydät sääaseman tiedot myös:

European Weather Network

Finland Weather Exchange

Weather Underground

AWEKAS



Weather Underground säähistoriasivu

Päivittäin yhteenveto Maaliskuu 20, 2017 Yksiköt:  Molemmat    Englantilaiset   Metriset
« Edellinen Päivä
Seuraava Päivä »
Päivittäin Viikoittain Kuukausittain Vuosittain Mukautettu
  Korkea: Matala: Keskiarvo:
Lämpötila: TemperatureC °F /  -17.8 °C -7.5 °F /  -21.9 °C -1 °F /  -18.3 °C
Kastepiste: DewpointC °F /  -17.8 °C -8.6 °F /  -22.6 °C -6.1 °F /  -21.2 °C
Kosteus: Humidity % 46 % 70 %
Tuulen nopeus: WindSpeedKMH mph /  0 km/h - 1.9 mph /  3.1 km/h
Tuulenpuuska: WindSpeedGustKMH mph /  0 km/h - -
Tuuli:- - SSW
Ilmanpaine: PressurehPa in /  0 hPa 998.5 in /  33809.2 hPa -
Sade: 0.0 in /  0 mm    
Historical Graphs
 
 
Taulukkotiedot Maaliskuu 20, 2017
Aika Lämpötila Kastepiste Ilmanpaine Tuuli Tuulen nopeus Tuulenpuuska Kosteus Sademäärä (tunneittain)
TemperatureC °F /  -17.8 °C DewpointC °F /  -17.8 °C PressurehPa in /  0 hPa Calm     Humidity % HourlyPrecipMM in /  0 mm
00:00 -3.1 °F /  -19.5 °C -5.4 °F /  -20.8 °C 1001.6 in /  33914.2 hPa Calm     84 % 0.0 in /  0 mm
00:15 -3.3 °F /  -19.6 °C -5.4 °F /  -20.8 °C 1001.6 in /  33914.2 hPa Calm     85 % 0.0 in /  0 mm
00:45 -3.3 °F /  -19.6 °C -5.5 °F /  -20.8 °C 1001.6 in /  33914.2 hPa Calm     85 % 0.0 in /  0 mm
01:00 -3.4 °F /  -19.7 °C -5.6 °F /  -20.9 °C 1001.6 in /  33914.2 hPa Calm     85 % 0.0 in /  0 mm
01:15 -3.6 °F /  -19.8 °C -5.7 °F /  -20.9 °C 1001.6 in /  33914.2 hPa Calm   1.6 mph /  2.6 km/h 85 % 0.0 in /  0 mm
01:30 -3.7 °F /  -19.8 °C -5.8 °F /  -21 °C 1001.6 in /  33914.2 hPa Calm     85 % 0.0 in /  0 mm
01:45 -3.8 °F /  -19.9 °C -5.8 °F /  -21 °C 1001.2 in /  33900.6 hPa Calm     86 % 0.0 in /  0 mm
02:00 -3.9 °F /  -19.9 °C -5.7 °F /  -20.9 °C 1001.6 in /  33914.2 hPa Calm     87 % 0.0 in /  0 mm
02:15 -4.1 °F /  -20.1 °C -5.9 °F /  -21.1 °C 1001.6 in /  33914.2 hPa Calm   3.2 mph /  5.1 km/h 87 % 0.0 in /  0 mm
02:30 -4.3 °F /  -20.2 °C -6.1 °F /  -21.2 °C 1001.6 in /  33914.2 hPa Calm     87 % 0.0 in /  0 mm
02:45 -4.4 °F /  -20.2 °C -6.3 °F /  -21.3 °C 1001.6 in /  33914.2 hPa Calm     87 % 0.0 in /  0 mm
03:00 -4.7 °F /  -20.4 °C -6.4 °F /  -21.3 °C 1001.6 in /  33914.2 hPa Calm     88 % 0.0 in /  0 mm
03:15 -4.9 °F /  -20.5 °C -6.6 °F /  -21.4 °C 1001.2 in /  33900.6 hPa Calm     88 % 0.0 in /  0 mm
03:30 -5.2 °F /  -20.7 °C -6.7 °F /  -21.5 °C 1001.2 in /  33900.6 hPa Calm     89 % 0.0 in /  0 mm
03:45 -5.4 °F /  -20.8 °C -6.9 °F /  -21.6 °C 1001.2 in /  33900.6 hPa Calm     89 % 0.0 in /  0 mm
04:00 -5.6 °F /  -20.9 °C -7.0 °F /  -21.7 °C 1001.2 in /  33900.6 hPa Calm     90 % 0.0 in /  0 mm
04:15 -5.8 °F /  -21 °C -7.2 °F /  -21.8 °C 1001.2 in /  33900.6 hPa Calm     90 % 0.0 in /  0 mm
04:30 -5.8 °F /  -21 °C -7.1 °F /  -21.7 °C 1001.2 in /  33900.6 hPa Calm     91 % 0.0 in /  0 mm
04:45 -5.9 °F /  -21.1 °C -7.2 °F /  -21.8 °C 1001.2 in /  33900.6 hPa Calm     91 % 0.0 in /  0 mm
05:15 -6.1 °F /  -21.2 °C -7.3 °F /  -21.8 °C 1001.2 in /  33900.6 hPa Calm     91 % 0.0 in /  0 mm
05:30 -6.3 °F /  -21.3 °C -7.6 °F /  -22 °C 1001.6 in /  33914.2 hPa Calm     91 % 0.0 in /  0 mm
05:45 -6.6 °F /  -21.4 °C -7.7 °F /  -22.1 °C 1001.6 in /  33914.2 hPa Calm     92 % 0.0 in /  0 mm
06:00 -6.9 °F /  -21.6 °C -8.0 °F /  -22.2 °C 1001.2 in /  33900.6 hPa Calm     92 % 0.0 in /  0 mm
06:15 -7.1 °F /  -21.7 °C -8.2 °F /  -22.3 °C 1001.2 in /  33900.6 hPa Calm     92 % 0.0 in /  0 mm
06:30 -7.3 °F /  -21.8 °C -8.4 °F /  -22.4 °C 1001.2 in /  33900.6 hPa Calm     92 % 0.0 in /  0 mm
06:45 -7.5 °F /  -21.9 °C -8.6 °F /  -22.6 °C 1001.2 in /  33900.6 hPa Calm     92 % 0.0 in /  0 mm
07:00 -7.5 °F /  -21.9 °C -8.6 °F /  -22.6 °C 1001.2 in /  33900.6 hPa Calm     92 % 0.0 in /  0 mm
07:15 -7.5 °F /  -21.9 °C -8.6 °F /  -22.6 °C 1001.2 in /  33900.6 hPa Calm     92 % 0.0 in /  0 mm
07:30 -7.4 °F /  -21.9 °C -8.3 °F /  -22.4 °C 1001.2 in /  33900.6 hPa Calm     93 % 0.0 in /  0 mm
07:45 -7.1 °F /  -21.7 °C -8.1 °F /  -22.3 °C 1001.2 in /  33900.6 hPa Calm     93 % 0.0 in /  0 mm
08:00 -6.3 °F /  -21.3 °C -7.1 °F /  -21.7 °C 1001.2 in /  33900.6 hPa WSW 1.6 mph /  2.6 km/h 4.8 mph /  7.7 km/h 94 % 0.0 in /  0 mm
08:30 -5.1 °F /  -20.6 °C -6.3 °F /  -21.3 °C 1001.2 in /  33900.6 hPa Calm   3.2 mph /  5.1 km/h 91 % 0.0 in /  0 mm
08:45 -4.4 °F /  -20.2 °C -6.0 °F /  -21.1 °C 1001.2 in /  33900.6 hPa Calm   4.8 mph /  7.7 km/h 89 % 0.0 in /  0 mm
09:00 -3.8 °F /  -19.9 °C -5.8 °F /  -21 °C 1000.9 in /  33890.5 hPa SSE 1.6 mph /  2.6 km/h 8.0 mph /  12.9 km/h 86 % 0.0 in /  0 mm
09:15 -3.0 °F /  -19.4 °C -5.8 °F /  -21 °C 1000.9 in /  33890.5 hPa South 3.2 mph /  5.1 km/h 11.3 mph /  18.2 km/h 81 % 0.0 in /  0 mm
09:30 -2.2 °F /  -19 °C -5.7 °F /  -20.9 °C 1000.9 in /  33890.5 hPa SSE 1.6 mph /  2.6 km/h 9.7 mph /  15.6 km/h 77 % 0.0 in /  0 mm
09:45 -1.3 °F /  -18.5 °C -5.5 °F /  -20.8 °C 1000.9 in /  33890.5 hPa South 3.2 mph /  5.1 km/h 9.7 mph /  15.6 km/h 73 % 0.0 in /  0 mm
10:00 -0.2 °F /  -17.9 °C -5.8 °F /  -21 °C 1000.9 in /  33890.5 hPa SSW 3.2 mph /  5.1 km/h 9.7 mph /  15.6 km/h 66 % 0.0 in /  0 mm
10:15 0.7 °F /  -17.4 °C -5.8 °F /  -21 °C 1000.9 in /  33890.5 hPa South 4.8 mph /  7.7 km/h 12.9 mph /  20.8 km/h 62 % 0.0 in /  0 mm
10:30 1.2 °F /  -17.1 °C -5.9 °F /  -21.1 °C 1000.9 in /  33890.5 hPa South 3.2 mph /  5.1 km/h 12.9 mph /  20.8 km/h 58 % 0.0 in /  0 mm
10:45 1.7 °F /  -16.8 °C -6.0 °F /  -21.1 °C 1000.9 in /  33890.5 hPa SSW 6.4 mph /  10.3 km/h 12.9 mph /  20.8 km/h 57 % 0.0 in /  0 mm
11:00 2.2 °F /  -16.6 °C -6.0 °F /  -21.1 °C 1000.6 in /  33880.3 hPa SSE 4.8 mph /  7.7 km/h 12.9 mph /  20.8 km/h 55 % 0.0 in /  0 mm
11:15 2.4 °F /  -16.4 °C -6.0 °F /  -21.1 °C 1000.6 in /  33880.3 hPa South 6.4 mph /  10.3 km/h 12.9 mph /  20.8 km/h 54 % 0.0 in /  0 mm
11:30 2.8 °F /  -16.2 °C -5.9 °F /  -21.1 °C 1000.6 in /  33880.3 hPa South 3.2 mph /  5.1 km/h 11.3 mph /  18.2 km/h 53 % 0.0 in /  0 mm
11:45 3.2 °F /  -16 °C -5.8 °F /  -21 °C 1000.6 in /  33880.3 hPa SSW 4.8 mph /  7.7 km/h 12.9 mph /  20.8 km/h 52 % 0.0 in /  0 mm
12:00 3.6 °F /  -15.8 °C -5.1 °F /  -20.6 °C 1000.6 in /  33880.3 hPa South 4.8 mph /  7.7 km/h 14.5 mph /  23.3 km/h 53 % 0.0 in /  0 mm
12:15 3.6 °F /  -15.8 °C -5.1 °F /  -20.6 °C 1000.6 in /  33880.3 hPa SSW 4.8 mph /  7.7 km/h 11.3 mph /  18.2 km/h 53 % 0.0 in /  0 mm
12:30 3.6 °F /  -15.8 °C -4.9 °F /  -20.5 °C 1000.6 in /  33880.3 hPa SSW 6.4 mph /  10.3 km/h 14.5 mph /  23.3 km/h 54 % 0.0 in /  0 mm
12:45 3.4 °F /  -15.9 °C -5.0 °F /  -20.6 °C 1000.6 in /  33880.3 hPa SSW 8.0 mph /  12.9 km/h 17.7 mph /  28.5 km/h 54 % 0.0 in /  0 mm
13:00 3.6 °F /  -15.8 °C -4.8 °F /  -20.4 °C 1000.6 in /  33880.3 hPa South 6.4 mph /  10.3 km/h 16.1 mph /  25.9 km/h 54 % 0.0 in /  0 mm
13:15 3.7 °F /  -15.7 °C -5.0 °F /  -20.6 °C 1000.6 in /  33880.3 hPa South 6.4 mph /  10.3 km/h 19.3 mph /  31.1 km/h 53 % 0.0 in /  0 mm
13:30 3.9 °F /  -15.6 °C -5.1 °F /  -20.6 °C 1000.6 in /  33880.3 hPa SSW 8.0 mph /  12.9 km/h 17.7 mph /  28.5 km/h 52 % 0.0 in /  0 mm
13:45 4.2 °F /  -15.4 °C -5.6 °F /  -20.9 °C 1000.6 in /  33880.3 hPa SSW 6.4 mph /  10.3 km/h 12.9 mph /  20.8 km/h 49 % 0.0 in /  0 mm
14:00 4.3 °F /  -15.4 °C -6.1 °F /  -21.2 °C 1000.2 in /  33866.8 hPa South 4.8 mph /  7.7 km/h 12.9 mph /  20.8 km/h 47 % 0.0 in /  0 mm
14:15 4.2 °F /  -15.4 °C -5.8 °F /  -21 °C 1000.2 in /  33866.8 hPa SSW 4.8 mph /  7.7 km/h 16.1 mph /  25.9 km/h 48 % 0.0 in /  0 mm
14:30 3.8 °F /  -15.7 °C -6.0 °F /  -21.1 °C 1000.2 in /  33866.8 hPa SSW 8.0 mph /  12.9 km/h 14.5 mph /  23.3 km/h 49 % 0.0 in /  0 mm
14:45 3.8 °F /  -15.7 °C -5.7 °F /  -20.9 °C 1000.2 in /  33866.8 hPa SSW 6.4 mph /  10.3 km/h 11.3 mph /  18.2 km/h 50 % 0.0 in /  0 mm
15:00 4.3 °F /  -15.4 °C -5.2 °F /  -20.7 °C 999.9 in /  33856.6 hPa South 4.8 mph /  7.7 km/h 12.9 mph /  20.8 km/h 50 % 0.0 in /  0 mm
15:15 4.4 °F /  -15.3 °C -5.1 °F /  -20.6 °C 999.9 in /  33856.6 hPa SSW 4.8 mph /  7.7 km/h 14.5 mph /  23.3 km/h 50 % 0.0 in /  0 mm
15:30 4.9 °F /  -15.1 °C -4.9 °F /  -20.5 °C 999.9 in /  33856.6 hPa SSW 8.0 mph /  12.9 km/h 22.5 mph /  36.2 km/h 49 % 0.0 in /  0 mm
15:45 5.1 °F /  -14.9 °C -5.1 °F /  -20.6 °C 999.9 in /  33856.6 hPa SSW 8.0 mph /  12.9 km/h 19.3 mph /  31.1 km/h 48 % 0.0 in /  0 mm
16:00 4.8 °F /  -15.1 °C -5.8 °F /  -21 °C 999.9 in /  33856.6 hPa SSW 4.8 mph /  7.7 km/h 12.9 mph /  20.8 km/h 46 % 0.0 in /  0 mm
16:15 4.7 °F /  -15.2 °C -5.9 °F /  -21.1 °C 999.9 in /  33856.6 hPa SSW 4.8 mph /  7.7 km/h 14.5 mph /  23.3 km/h 46 % 0.0 in /  0 mm
16:30 4.5 °F /  -15.3 °C -5.9 °F /  -21.1 °C 999.5 in /  33843.1 hPa SSW 4.8 mph /  7.7 km/h 14.5 mph /  23.3 km/h 47 % 0.0 in /  0 mm
17:00 4.1 °F /  -15.5 °C -6.5 °F /  -21.4 °C 999.9 in /  33856.6 hPa SSW 6.4 mph /  10.3 km/h 16.1 mph /  25.9 km/h 46 % 0.0 in /  0 mm
17:15 3.8 °F /  -15.7 °C -6.5 °F /  -21.4 °C 999.9 in /  33856.6 hPa South 3.2 mph /  5.1 km/h 8.0 mph /  12.9 km/h 47 % 0.0 in /  0 mm
17:30 3.7 °F /  -15.7 °C -6.6 °F /  -21.4 °C 999.9 in /  33856.6 hPa South 3.2 mph /  5.1 km/h 12.9 mph /  20.8 km/h 47 % 0.0 in /  0 mm
17:45 3.4 °F /  -15.9 °C -6.3 °F /  -21.3 °C 999.9 in /  33856.6 hPa SSW 3.2 mph /  5.1 km/h 11.3 mph /  18.2 km/h 49 % 0.0 in /  0 mm
18:00 3.1 °F /  -16.1 °C -6.3 °F /  -21.3 °C 999.9 in /  33856.6 hPa Calm   4.8 mph /  7.7 km/h 50 % 0.0 in /  0 mm
18:15 2.8 °F /  -16.2 °C -6.1 °F /  -21.2 °C 999.5 in /  33843.1 hPa Calm   3.2 mph /  5.1 km/h 52 % 0.0 in /  0 mm
18:30 2.4 °F /  -16.4 °C -6.2 °F /  -21.2 °C 999.9 in /  33856.6 hPa Calm     53 % 0.0 in /  0 mm
18:45 2.1 °F /  -16.6 °C -6.5 °F /  -21.4 °C 999.9 in /  33856.6 hPa Calm   1.6 mph /  2.6 km/h 53 % 0.0 in /  0 mm
19:00 1.6 °F /  -16.9 °C -6.5 °F /  -21.4 °C 999.9 in /  33856.6 hPa Calm     55 % 0.0 in /  0 mm
19:15 1.1 °F /  -17.2 °C -6.1 °F /  -21.2 °C 999.9 in /  33856.6 hPa Calm     59 % 0.0 in /  0 mm
19:30 0.6 °F /  -17.4 °C -5.7 °F /  -20.9 °C 999.9 in /  33856.6 hPa Calm     63 % 0.0 in /  0 mm
19:45 0.1 °F /  -17.7 °C -5.7 °F /  -20.9 °C 999.5 in /  33843.1 hPa Calm     65 % 0.0 in /  0 mm
20:00 -0.3 °F /  -17.9 °C -5.5 °F /  -20.8 °C 999.5 in /  33843.1 hPa Calm     68 % 0.0 in /  0 mm
20:15 -0.6 °F /  -18.1 °C -5.9 °F /  -21.1 °C 999.5 in /  33843.1 hPa Calm     67 % 0.0 in /  0 mm
20:30 -0.8 °F /  -18.2 °C -6.4 °F /  -21.3 °C 999.5 in /  33843.1 hPa Calm     66 % 0.0 in /  0 mm
20:45 -1.0 °F /  -18.3 °C -6.0 °F /  -21.1 °C 999.2 in /  33832.9 hPa Calm     69 % 0.0 in /  0 mm
21:00 -1.3 °F /  -18.5 °C -5.1 °F /  -20.6 °C 999.2 in /  33832.9 hPa Calm   4.8 mph /  7.7 km/h 75 % 0.0 in /  0 mm
21:15 -1.8 °F /  -18.8 °C -5.6 °F /  -20.9 °C 999.2 in /  33832.9 hPa Calm     75 % 0.0 in /  0 mm
21:30 -1.9 °F /  -18.8 °C -5.8 °F /  -21 °C 999.2 in /  33832.9 hPa Calm     75 % 0.0 in /  0 mm
21:45 -2.1 °F /  -18.9 °C -6.3 °F /  -21.3 °C 999.2 in /  33832.9 hPa Calm     73 % 0.0 in /  0 mm
22:00 -2.2 °F /  -19 °C -6.4 °F /  -21.3 °C 999.2 in /  33832.9 hPa Calm     73 % 0.0 in /  0 mm
22:15 -2.2 °F /  -19 °C -6.6 °F /  -21.4 °C 998.9 in /  33822.8 hPa Calm     72 % 0.0 in /  0 mm
22:30 -2.2 °F /  -19 °C -5.3 °F /  -20.7 °C 998.9 in /  33822.8 hPa Calm     79 % 0.0 in /  0 mm
22:45 -2.2 °F /  -19 °C -5.4 °F /  -20.8 °C 998.9 in /  33822.8 hPa Calm     79 % 0.0 in /  0 mm
23:00 -2.1 °F /  -18.9 °C -5.9 °F /  -21.1 °C 998.5 in /  33809.2 hPa Calm     75 % 0.0 in /  0 mm
23:15 -1.8 °F /  -18.8 °C -5.6 °F /  -20.9 °C 998.5 in /  33809.2 hPa Calm     75 % 0.0 in /  0 mm
23:30 -1.4 °F /  -18.6 °C -5.8 °F /  -21 °C 998.5 in /  33809.2 hPa Calm     72 % 0.0 in /  0 mm
23:45 -1.2 °F /  -18.4 °C -5.9 °F /  -21.1 °C 998.5 in /  33809.2 hPa Calm   3.2 mph /  5.1 km/h 70 % 0.0 in /  0 mm
Esan sääasema
Terveisin Weather Underground - 2.75 mb

Alkuperäinen skripti  Jim McMurry - jmcmurry@mwt.net Sovitettu myös templatelle  Wim van der Kuil - Leuven-Template.eu

Laitteet joita käytämme:

Sääasema
Davis VP2

Sääasemaohjelma
Cumulus

Sääaseman tietokone
Asus EeePC

Palveluntarjoaja
Suncomet

Davis VP2

Cumulus

Asus EeePC

Suncomet